sensor_id;sensor_type;location;lat;lon;timestamp;temperature;humidity
21403;DHT22;10862;51.886;17.078;2022-10-16T00:00:41;13.10;99.90
21403;DHT22;10862;51.886;17.078;2022-10-16T00:03:07;13.10;99.90
21403;DHT22;10862;51.886;17.078;2022-10-16T00:05:33;13.10;99.90
21403;DHT22;10862;51.886;17.078;2022-10-16T00:07:58;13.20;99.90
21403;DHT22;10862;51.886;17.078;2022-10-16T00:10:24;13.10;99.90
21403;DHT22;10862;51.886;17.078;2022-10-16T00:12:49;13.10;99.90
21403;DHT22;10862;51.886;17.078;2022-10-16T00:15:15;13.10;99.90
21403;DHT22;10862;51.886;17.078;2022-10-16T00:17:40;13.10;99.90
21403;DHT22;10862;51.886;17.078;2022-10-16T00:20:06;13.10;99.90
21403;DHT22;10862;51.886;17.078;2022-10-16T00:22:32;13.20;99.90
21403;DHT22;10862;51.886;17.078;2022-10-16T00:24:57;13.20;99.90
21403;DHT22;10862;51.886;17.078;2022-10-16T00:27:23;13.30;99.90
21403;DHT22;10862;51.886;17.078;2022-10-16T00:29:52;13.30;99.90
21403;DHT22;10862;51.886;17.078;2022-10-16T00:32:18;13.30;99.90
21403;DHT22;10862;51.886;17.078;2022-10-16T00:34:43;13.40;99.90
21403;DHT22;10862;51.886;17.078;2022-10-16T00:37:09;13.50;99.90
21403;DHT22;10862;51.886;17.078;2022-10-16T00:39:34;13.50;99.90
21403;DHT22;10862;51.886;17.078;2022-10-16T00:42:00;13.60;99.90
21403;DHT22;10862;51.886;17.078;2022-10-16T00:47:10;13.70;99.90
21403;DHT22;10862;51.886;17.078;2022-10-16T00:49:37;13.70;99.90
21403;DHT22;10862;51.886;17.078;2022-10-16T00:52:03;13.70;99.90
21403;DHT22;10862;51.886;17.078;2022-10-16T00:54:30;13.80;99.90
21403;DHT22;10862;51.886;17.078;2022-10-16T00:56:56;13.80;99.90
21403;DHT22;10862;51.886;17.078;2022-10-16T00:59:24;13.80;99.90
21403;DHT22;10862;51.886;17.078;2022-10-16T01:01:51;13.90;99.90
21403;DHT22;10862;51.886;17.078;2022-10-16T01:04:16;13.90;99.90
21403;DHT22;10862;51.886;17.078;2022-10-16T01:09:11;13.90;99.90
21403;DHT22;10862;51.886;17.078;2022-10-16T01:14:25;13.80;99.90
21403;DHT22;10862;51.886;17.078;2022-10-16T01:16:58;13.90;99.90
21403;DHT22;10862;51.886;17.078;2022-10-16T01:21:51;13.90;99.90
21403;DHT22;10862;51.886;17.078;2022-10-16T01:26:58;14.00;99.90
21403;DHT22;10862;51.886;17.078;2022-10-16T01:29:34;14.00;99.90
21403;DHT22;10862;51.886;17.078;2022-10-16T01:32:05;14.00;99.90
21403;DHT22;10862;51.886;17.078;2022-10-16T01:34:37;14.10;99.90
21403;DHT22;10862;51.886;17.078;2022-10-16T01:37:12;14.10;99.90
21403;DHT22;10862;51.886;17.078;2022-10-16T01:39:39;14.10;99.90
21403;DHT22;10862;51.886;17.078;2022-10-16T01:42:11;14.10;99.90
21403;DHT22;10862;51.886;17.078;2022-10-16T01:44:37;14.10;99.90
21403;DHT22;10862;51.886;17.078;2022-10-16T01:47:04;14.20;99.90
21403;DHT22;10862;51.886;17.078;2022-10-16T01:49:31;14.20;99.90
21403;DHT22;10862;51.886;17.078;2022-10-16T01:51:58;14.20;99.90
21403;DHT22;10862;51.886;17.078;2022-10-16T01:54:28;14.20;99.90
21403;DHT22;10862;51.886;17.078;2022-10-16T01:56:55;14.20;99.90
21403;DHT22;10862;51.886;17.078;2022-10-16T01:59:22;14.20;99.90
21403;DHT22;10862;51.886;17.078;2022-10-16T02:01:50;14.20;99.90
21403;DHT22;10862;51.886;17.078;2022-10-16T02:06:43;14.20;99.90
21403;DHT22;10862;51.886;17.078;2022-10-16T02:09:09;14.20;99.90
21403;DHT22;10862;51.886;17.078;2022-10-16T02:11:34;14.20;99.90
21403;DHT22;10862;51.886;17.078;2022-10-16T02:14:06;14.20;99.90
21403;DHT22;10862;51.886;17.078;2022-10-16T02:16:33;14.20;99.90
21403;DHT22;10862;51.886;17.078;2022-10-16T02:18:59;14.20;99.90
21403;DHT22;10862;51.886;17.078;2022-10-16T02:21:26;14.10;99.90
21403;DHT22;10862;51.886;17.078;2022-10-16T02:23:58;14.20;99.90
21403;DHT22;10862;51.886;17.078;2022-10-16T02:26:38;14.20;99.90
21403;DHT22;10862;51.886;17.078;2022-10-16T02:29:07;14.10;99.90
21403;DHT22;10862;51.886;17.078;2022-10-16T02:31:35;14.10;99.90
21403;DHT22;10862;51.886;17.078;2022-10-16T02:34:03;14.20;99.90
21403;DHT22;10862;51.886;17.078;2022-10-16T02:36:30;14.10;99.90
21403;DHT22;10862;51.886;17.078;2022-10-16T02:38:57;14.10;99.90
21403;DHT22;10862;51.886;17.078;2022-10-16T02:41:24;14.00;99.90
21403;DHT22;10862;51.886;17.078;2022-10-16T02:43:50;14.10;99.90
21403;DHT22;10862;51.886;17.078;2022-10-16T02:46:16;14.10;99.90
21403;DHT22;10862;51.886;17.078;2022-10-16T02:48:42;14.10;99.90
21403;DHT22;10862;51.886;17.078;2022-10-16T02:51:07;14.10;99.90
21403;DHT22;10862;51.886;17.078;2022-10-16T02:53:33;14.10;99.90
21403;DHT22;10862;51.886;17.078;2022-10-16T02:55:58;14.10;99.90
21403;DHT22;10862;51.886;17.078;2022-10-16T02:58:24;14.10;99.90
21403;DHT22;10862;51.886;17.078;2022-10-16T03:00:49;14.10;99.90
21403;DHT22;10862;51.886;17.078;2022-10-16T03:03:15;14.10;99.90
21403;DHT22;10862;51.886;17.078;2022-10-16T03:05:40;14.00;99.90
21403;DHT22;10862;51.886;17.078;2022-10-16T03:08:06;14.10;99.90
21403;DHT22;10862;51.886;17.078;2022-10-16T03:10:31;14.10;99.90
21403;DHT22;10862;51.886;17.078;2022-10-16T03:12:57;14.20;99.90
21403;DHT22;10862;51.886;17.078;2022-10-16T03:15:22;14.10;99.90
21403;DHT22;10862;51.886;17.078;2022-10-16T03:17:48;14.20;99.90
21403;DHT22;10862;51.886;17.078;2022-10-16T03:20:13;14.20;99.90
21403;DHT22;10862;51.886;17.078;2022-10-16T03:22:39;14.20;99.90
21403;DHT22;10862;51.886;17.078;2022-10-16T03:25:04;14.20;99.90
21403;DHT22;10862;51.886;17.078;2022-10-16T03:27:30;14.20;99.90
21403;DHT22;10862;51.886;17.078;2022-10-16T03:29:55;14.30;99.90
21403;DHT22;10862;51.886;17.078;2022-10-16T03:32:21;14.10;99.90
21403;DHT22;10862;51.886;17.078;2022-10-16T03:34:46;14.20;99.90
21403;DHT22;10862;51.886;17.078;2022-10-16T03:37:12;14.30;99.90
21403;DHT22;10862;51.886;17.078;2022-10-16T03:39:38;14.40;99.90
21403;DHT22;10862;51.886;17.078;2022-10-16T03:42:03;14.30;99.90
21403;DHT22;10862;51.886;17.078;2022-10-16T03:44:29;14.30;99.90
21403;DHT22;10862;51.886;17.078;2022-10-16T03:46:54;14.20;99.90
21403;DHT22;10862;51.886;17.078;2022-10-16T03:49:20;14.20;99.90
21403;DHT22;10862;51.886;17.078;2022-10-16T03:51:45;14.20;99.90
21403;DHT22;10862;51.886;17.078;2022-10-16T03:54:11;14.20;99.90
21403;DHT22;10862;51.886;17.078;2022-10-16T03:56:36;14.10;99.90
21403;DHT22;10862;51.886;17.078;2022-10-16T03:59:02;14.20;99.90
21403;DHT22;10862;51.886;17.078;2022-10-16T04:01:27;14.10;99.90
21403;DHT22;10862;51.886;17.078;2022-10-16T04:03:53;14.20;99.90
21403;DHT22;10862;51.886;17.078;2022-10-16T04:06:18;14.20;99.90
21403;DHT22;10862;51.886;17.078;2022-10-16T04:08:44;14.20;99.90
21403;DHT22;10862;51.886;17.078;2022-10-16T04:11:09;14.20;99.90
21403;DHT22;10862;51.886;17.078;2022-10-16T04:13:35;14.30;99.90
21403;DHT22;10862;51.886;17.078;2022-10-16T04:16:00;14.20;99.90
21403;DHT22;10862;51.886;17.078;2022-10-16T04:18:26;14.30;99.90
21403;DHT22;10862;51.886;17.078;2022-10-16T04:20:52;14.30;99.90
21403;DHT22;10862;51.886;17.078;2022-10-16T04:23:18;14.40;99.90
21403;DHT22;10862;51.886;17.078;2022-10-16T04:25:43;14.40;99.90
21403;DHT22;10862;51.886;17.078;2022-10-16T04:28:09;14.40;99.90
21403;DHT22;10862;51.886;17.078;2022-10-16T04:30:34;14.30;99.90
21403;DHT22;10862;51.886;17.078;2022-10-16T04:33:00;14.40;99.90
21403;DHT22;10862;51.886;17.078;2022-10-16T04:35:25;14.30;99.90
21403;DHT22;10862;51.886;17.078;2022-10-16T04:37:51;14.40;99.90
21403;DHT22;10862;51.886;17.078;2022-10-16T04:40:17;14.10;99.90
21403;DHT22;10862;51.886;17.078;2022-10-16T04:42:42;14.20;99.90
21403;DHT22;10862;51.886;17.078;2022-10-16T04:45:08;14.20;99.90
21403;DHT22;10862;51.886;17.078;2022-10-16T04:47:34;14.30;99.90
21403;DHT22;10862;51.886;17.078;2022-10-16T04:49:59;14.20;99.90
21403;DHT22;10862;51.886;17.078;2022-10-16T04:52:26;14.30;99.90
21403;DHT22;10862;51.886;17.078;2022-10-16T04:54:51;14.20;99.90
21403;DHT22;10862;51.886;17.078;2022-10-16T04:57:17;14.20;99.90
21403;DHT22;10862;51.886;17.078;2022-10-16T04:59:43;14.20;99.90
21403;DHT22;10862;51.886;17.078;2022-10-16T05:02:08;14.10;99.90
21403;DHT22;10862;51.886;17.078;2022-10-16T05:04:34;14.10;99.90
21403;DHT22;10862;51.886;17.078;2022-10-16T05:06:59;14.10;99.90
21403;DHT22;10862;51.886;17.078;2022-10-16T05:09:25;14.00;99.90
21403;DHT22;10862;51.886;17.078;2022-10-16T05:11:50;14.00;99.90
21403;DHT22;10862;51.886;17.078;2022-10-16T05:14:16;14.00;99.90
21403;DHT22;10862;51.886;17.078;2022-10-16T05:16:41;14.00;99.90
21403;DHT22;10862;51.886;17.078;2022-10-16T05:19:07;14.00;99.90
21403;DHT22;10862;51.886;17.078;2022-10-16T05:21:32;13.90;99.90
21403;DHT22;10862;51.886;17.078;2022-10-16T05:23:58;13.90;99.90
21403;DHT22;10862;51.886;17.078;2022-10-16T05:26:23;13.80;99.90
21403;DHT22;10862;51.886;17.078;2022-10-16T05:28:49;13.80;99.90
21403;DHT22;10862;51.886;17.078;2022-10-16T05:31:15;13.80;99.90
21403;DHT22;10862;51.886;17.078;2022-10-16T05:33:40;13.80;99.90
21403;DHT22;10862;51.886;17.078;2022-10-16T05:36:07;13.90;99.90
21403;DHT22;10862;51.886;17.078;2022-10-16T05:38:36;13.90;99.90
21403;DHT22;10862;51.886;17.078;2022-10-16T05:41:02;13.90;99.90
21403;DHT22;10862;51.886;17.078;2022-10-16T05:43:28;13.90;99.90
21403;DHT22;10862;51.886;17.078;2022-10-16T05:45:54;13.90;99.90
21403;DHT22;10862;51.886;17.078;2022-10-16T05:48:20;13.90;99.90
21403;DHT22;10862;51.886;17.078;2022-10-16T05:50:45;13.90;99.90
21403;DHT22;10862;51.886;17.078;2022-10-16T05:53:11;13.90;99.90
21403;DHT22;10862;51.886;17.078;2022-10-16T05:55:36;13.80;99.90
21403;DHT22;10862;51.886;17.078;2022-10-16T05:58:02;14.00;99.90
21403;DHT22;10862;51.886;17.078;2022-10-16T06:00:27;13.80;99.90
21403;DHT22;10862;51.886;17.078;2022-10-16T06:02:53;13.80;99.90
21403;DHT22;10862;51.886;17.078;2022-10-16T06:05:19;13.90;99.90
21403;DHT22;10862;51.886;17.078;2022-10-16T06:07:44;14.00;99.90
21403;DHT22;10862;51.886;17.078;2022-10-16T06:10:09;14.00;99.90
21403;DHT22;10862;51.886;17.078;2022-10-16T06:12:35;14.00;99.90
21403;DHT22;10862;51.886;17.078;2022-10-16T06:15:00;14.00;99.90
21403;DHT22;10862;51.886;17.078;2022-10-16T06:17:26;14.00;99.90
21403;DHT22;10862;51.886;17.078;2022-10-16T06:19:51;14.10;99.90
21403;DHT22;10862;51.886;17.078;2022-10-16T06:22:17;14.20;99.90
21403;DHT22;10862;51.886;17.078;2022-10-16T06:24:42;14.20;99.90
21403;DHT22;10862;51.886;17.078;2022-10-16T06:27:08;14.30;99.90
21403;DHT22;10862;51.886;17.078;2022-10-16T06:29:33;14.40;99.90
21403;DHT22;10862;51.886;17.078;2022-10-16T06:31:59;14.40;99.90
21403;DHT22;10862;51.886;17.078;2022-10-16T06:34:24;14.50;99.90
21403;DHT22;10862;51.886;17.078;2022-10-16T06:36:50;14.50;99.90
21403;DHT22;10862;51.886;17.078;2022-10-16T06:39:15;14.50;99.90
21403;DHT22;10862;51.886;17.078;2022-10-16T06:41:41;14.50;99.90
21403;DHT22;10862;51.886;17.078;2022-10-16T06:44:07;14.60;99.90
21403;DHT22;10862;51.886;17.078;2022-10-16T06:46:35;14.70;99.90
21403;DHT22;10862;51.886;17.078;2022-10-16T06:49:01;14.80;99.90
21403;DHT22;10862;51.886;17.078;2022-10-16T06:51:26;14.90;99.90
21403;DHT22;10862;51.886;17.078;2022-10-16T06:53:53;15.00;99.90
21403;DHT22;10862;51.886;17.078;2022-10-16T06:56:20;15.10;99.90
21403;DHT22;10862;51.886;17.078;2022-10-16T06:58:46;15.20;99.90
21403;DHT22;10862;51.886;17.078;2022-10-16T07:01:11;15.20;99.90
21403;DHT22;10862;51.886;17.078;2022-10-16T07:03:41;15.30;99.90
21403;DHT22;10862;51.886;17.078;2022-10-16T07:06:07;15.30;99.90
21403;DHT22;10862;51.886;17.078;2022-10-16T07:08:34;15.40;99.90
21403;DHT22;10862;51.886;17.078;2022-10-16T07:11:04;15.40;99.90
21403;DHT22;10862;51.886;17.078;2022-10-16T07:13:30;15.40;99.90
21403;DHT22;10862;51.886;17.078;2022-10-16T07:15:55;15.40;99.90
21403;DHT22;10862;51.886;17.078;2022-10-16T07:18:21;15.40;99.90
21403;DHT22;10862;51.886;17.078;2022-10-16T07:20:47;15.40;99.90
21403;DHT22;10862;51.886;17.078;2022-10-16T07:23:12;15.40;99.90
21403;DHT22;10862;51.886;17.078;2022-10-16T07:25:37;15.40;99.90
21403;DHT22;10862;51.886;17.078;2022-10-16T07:28:03;15.40;99.90
21403;DHT22;10862;51.886;17.078;2022-10-16T07:30:29;15.40;99.90
21403;DHT22;10862;51.886;17.078;2022-10-16T07:32:54;15.40;99.90
21403;DHT22;10862;51.886;17.078;2022-10-16T07:35:19;15.50;99.90
21403;DHT22;10862;51.886;17.078;2022-10-16T07:37:45;15.60;99.90
21403;DHT22;10862;51.886;17.078;2022-10-16T07:40:11;15.60;99.90
21403;DHT22;10862;51.886;17.078;2022-10-16T07:42:36;15.80;99.90
21403;DHT22;10862;51.886;17.078;2022-10-16T07:45:02;15.80;99.90
21403;DHT22;10862;51.886;17.078;2022-10-16T07:47:27;15.90;99.90
21403;DHT22;10862;51.886;17.078;2022-10-16T07:49:53;16.00;99.90
21403;DHT22;10862;51.886;17.078;2022-10-16T07:52:19;16.10;99.90
21403;DHT22;10862;51.886;17.078;2022-10-16T07:54:44;16.30;99.90
21403;DHT22;10862;51.886;17.078;2022-10-16T07:57:09;16.50;99.90
21403;DHT22;10862;51.886;17.078;2022-10-16T07:59:35;16.80;99.90
21403;DHT22;10862;51.886;17.078;2022-10-16T08:02:00;17.00;99.90
21403;DHT22;10862;51.886;17.078;2022-10-16T08:04:26;17.00;99.90
21403;DHT22;10862;51.886;17.078;2022-10-16T08:06:51;17.10;99.90
21403;DHT22;10862;51.886;17.078;2022-10-16T08:09:17;17.20;99.90
21403;DHT22;10862;51.886;17.078;2022-10-16T08:11:42;17.20;99.90
21403;DHT22;10862;51.886;17.078;2022-10-16T08:14:08;17.30;99.90
21403;DHT22;10862;51.886;17.078;2022-10-16T08:16:33;17.50;99.90
21403;DHT22;10862;51.886;17.078;2022-10-16T08:18:59;17.60;99.90
21403;DHT22;10862;51.886;17.078;2022-10-16T08:21:24;17.70;99.90
21403;DHT22;10862;51.886;17.078;2022-10-16T08:23:50;17.70;99.90
21403;DHT22;10862;51.886;17.078;2022-10-16T08:26:15;17.80;99.90
21403;DHT22;10862;51.886;17.078;2022-10-16T08:28:41;17.90;99.90
21403;DHT22;10862;51.886;17.078;2022-10-16T08:31:08;17.90;99.90
21403;DHT22;10862;51.886;17.078;2022-10-16T08:33:33;17.80;99.90
21403;DHT22;10862;51.886;17.078;2022-10-16T08:36:00;17.90;99.90
21403;DHT22;10862;51.886;17.078;2022-10-16T08:38:26;17.80;99.90
21403;DHT22;10862;51.886;17.078;2022-10-16T08:40:51;17.90;99.90
21403;DHT22;10862;51.886;17.078;2022-10-16T08:43:28;17.80;99.90
21403;DHT22;10862;51.886;17.078;2022-10-16T08:51:01;17.80;99.90
21403;DHT22;10862;51.886;17.078;2022-10-16T08:53:31;17.80;99.90
21403;DHT22;10862;51.886;17.078;2022-10-16T08:55:58;17.80;99.90
21403;DHT22;10862;51.886;17.078;2022-10-16T08:58:28;18.00;99.90
21403;DHT22;10862;51.886;17.078;2022-10-16T09:00:54;18.00;99.90
21403;DHT22;10862;51.886;17.078;2022-10-16T09:03:23;18.00;99.90
21403;DHT22;10862;51.886;17.078;2022-10-16T09:05:52;18.10;99.90
21403;DHT22;10862;51.886;17.078;2022-10-16T09:08:42;18.10;99.90
21403;DHT22;10862;51.886;17.078;2022-10-16T09:16:19;20.70;99.90
21403;DHT22;10862;51.886;17.078;2022-10-16T09:21:33;20.90;99.90
21403;DHT22;10862;51.886;17.078;2022-10-16T09:24:07;22.00;99.90
21403;DHT22;10862;51.886;17.078;2022-10-16T09:26:34;22.10;99.90
21403;DHT22;10862;51.886;17.078;2022-10-16T09:29:00;21.50;99.90
21403;DHT22;10862;51.886;17.078;2022-10-16T09:31:25;20.70;99.90
21403;DHT22;10862;51.886;17.078;2022-10-16T09:33:52;20.50;99.90
21403;DHT22;10862;51.886;17.078;2022-10-16T09:36:19;20.70;99.90
21403;DHT22;10862;51.886;17.078;2022-10-16T09:38:45;20.90;99.90
21403;DHT22;10862;51.886;17.078;2022-10-16T09:41:18;20.90;99.90
21403;DHT22;10862;51.886;17.078;2022-10-16T09:46:24;21.70;99.90
21403;DHT22;10862;51.886;17.078;2022-10-16T09:48:50;21.30;99.90
21403;DHT22;10862;51.886;17.078;2022-10-16T09:51:35;22.20;99.90
21403;DHT22;10862;51.886;17.078;2022-10-16T09:54:12;22.70;99.90
21403;DHT22;10862;51.886;17.078;2022-10-16T09:56:38;21.70;99.90
21403;DHT22;10862;51.886;17.078;2022-10-16T09:59:11;21.70;99.90
21403;DHT22;10862;51.886;17.078;2022-10-16T10:04:03;22.70;99.90
21403;DHT22;10862;51.886;17.078;2022-10-16T10:06:33;23.40;99.90
21403;DHT22;10862;51.886;17.078;2022-10-16T10:09:00;23.10;98.80
21403;DHT22;10862;51.886;17.078;2022-10-16T10:11:37;22.70;99.60
21403;DHT22;10862;51.886;17.078;2022-10-16T10:14:04;22.80;99.90
21403;DHT22;10862;51.886;17.078;2022-10-16T10:16:29;22.70;99.90
21403;DHT22;10862;51.886;17.078;2022-10-16T10:18:58;23.70;97.80
21403;DHT22;10862;51.886;17.078;2022-10-16T10:21:24;23.70;93.60
21403;DHT22;10862;51.886;17.078;2022-10-16T10:23:55;23.10;95.80
21403;DHT22;10862;51.886;17.078;2022-10-16T10:26:23;22.20;99.90
21403;DHT22;10862;51.886;17.078;2022-10-16T10:28:55;21.50;99.90
21403;DHT22;10862;51.886;17.078;2022-10-16T10:36:37;21.80;99.90
21403;DHT22;10862;51.886;17.078;2022-10-16T10:44:07;21.30;99.90
21403;DHT22;10862;51.886;17.078;2022-10-16T10:46:39;22.30;99.90
21403;DHT22;10862;51.886;17.078;2022-10-16T10:59:40;21.20;99.90
21403;DHT22;10862;51.886;17.078;2022-10-16T11:04:54;21.00;99.90
21403;DHT22;10862;51.886;17.078;2022-10-16T11:07:30;21.10;99.90
21403;DHT22;10862;51.886;17.078;2022-10-16T11:10:44;21.00;99.90
21403;DHT22;10862;51.886;17.078;2022-10-16T11:12:44;20.90;99.90
21403;DHT22;10862;51.886;17.078;2022-10-16T11:15:25;20.80;99.90
21403;DHT22;10862;51.886;17.078;2022-10-16T11:18:06;20.90;99.90
21403;DHT22;10862;51.886;17.078;2022-10-16T11:20:33;20.90;99.90
21403;DHT22;10862;51.886;17.078;2022-10-16T11:23:01;21.10;99.90
21403;DHT22;10862;51.886;17.078;2022-10-16T11:25:31;21.20;99.90
21403;DHT22;10862;51.886;17.078;2022-10-16T11:28:06;21.10;99.90
21403;DHT22;10862;51.886;17.078;2022-10-16T11:30:39;21.20;99.90
21403;DHT22;10862;51.886;17.078;2022-10-16T11:35:33;21.20;99.90
21403;DHT22;10862;51.886;17.078;2022-10-16T11:38:02;21.10;99.90
21403;DHT22;10862;51.886;17.078;2022-10-16T11:40:29;21.00;99.90
21403;DHT22;10862;51.886;17.078;2022-10-16T11:43:02;20.80;99.90
21403;DHT22;10862;51.886;17.078;2022-10-16T11:45:39;20.60;99.90
21403;DHT22;10862;51.886;17.078;2022-10-16T11:48:15;20.60;99.90
21403;DHT22;10862;51.886;17.078;2022-10-16T11:50:44;20.50;99.90
21403;DHT22;10862;51.886;17.078;2022-10-16T11:53:13;20.60;99.90
21403;DHT22;10862;51.886;17.078;2022-10-16T11:55:42;20.70;99.90
21403;DHT22;10862;51.886;17.078;2022-10-16T11:58:12;20.80;99.90
21403;DHT22;10862;51.886;17.078;2022-10-16T12:08:23;21.10;99.90
21403;DHT22;10862;51.886;17.078;2022-10-16T12:10:51;21.20;99.90
21403;DHT22;10862;51.886;17.078;2022-10-16T12:18:33;20.80;99.90
21403;DHT22;10862;51.886;17.078;2022-10-16T12:20:59;20.80;99.90
21403;DHT22;10862;51.886;17.078;2022-10-16T12:23:29;20.70;99.90
21403;DHT22;10862;51.886;17.078;2022-10-16T12:25:56;20.60;99.90
21403;DHT22;10862;51.886;17.078;2022-10-16T12:28:25;20.60;99.90
21403;DHT22;10862;51.886;17.078;2022-10-16T12:30:54;20.50;99.90
21403;DHT22;10862;51.886;17.078;2022-10-16T12:33:24;20.40;99.90
21403;DHT22;10862;51.886;17.078;2022-10-16T12:35:50;20.30;99.90
21403;DHT22;10862;51.886;17.078;2022-10-16T12:38:20;20.30;99.90
21403;DHT22;10862;51.886;17.078;2022-10-16T12:40:47;20.30;99.90
21403;DHT22;10862;51.886;17.078;2022-10-16T12:48:26;20.30;99.90
21403;DHT22;10862;51.886;17.078;2022-10-16T12:50:51;20.30;99.90
21403;DHT22;10862;51.886;17.078;2022-10-16T12:53:21;20.40;99.90
21403;DHT22;10862;51.886;17.078;2022-10-16T13:01:20;20.60;99.90
21403;DHT22;10862;51.886;17.078;2022-10-16T13:04:00;20.60;99.90
21403;DHT22;10862;51.886;17.078;2022-10-16T13:06:47;20.50;99.90
21403;DHT22;10862;51.886;17.078;2022-10-16T13:17:15;20.30;99.90
21403;DHT22;10862;51.886;17.078;2022-10-16T13:19:50;20.30;99.90
21403;DHT22;10862;51.886;17.078;2022-10-16T13:22:26;20.20;99.90
21403;DHT22;10862;51.886;17.078;2022-10-16T13:27:52;20.10;99.90
21403;DHT22;10862;51.886;17.078;2022-10-16T13:30:20;20.00;99.90
21403;DHT22;10862;51.886;17.078;2022-10-16T13:32:47;20.00;99.90
21403;DHT22;10862;51.886;17.078;2022-10-16T13:35:29;20.00;99.90
21403;DHT22;10862;51.886;17.078;2022-10-16T13:38:14;20.00;99.90
21403;DHT22;10862;51.886;17.078;2022-10-16T13:43:22;20.00;99.90
21403;DHT22;10862;51.886;17.078;2022-10-16T13:48:20;20.50;99.90
21403;DHT22;10862;51.886;17.078;2022-10-16T13:50:45;21.20;99.90
21403;DHT22;10862;51.886;17.078;2022-10-16T13:53:14;21.40;99.90
21403;DHT22;10862;51.886;17.078;2022-10-16T13:55:39;22.00;99.90
21403;DHT22;10862;51.886;17.078;2022-10-16T13:58:10;22.10;99.90
21403;DHT22;10862;51.886;17.078;2022-10-16T14:00:36;22.30;99.90
21403;DHT22;10862;51.886;17.078;2022-10-16T14:03:03;22.40;99.90
21403;DHT22;10862;51.886;17.078;2022-10-16T14:05:29;22.40;99.90
21403;DHT22;10862;51.886;17.078;2022-10-16T14:07:55;22.40;99.90
21403;DHT22;10862;51.886;17.078;2022-10-16T14:10:29;22.00;99.90
21403;DHT22;10862;51.886;17.078;2022-10-16T14:12:59;21.70;99.90
21403;DHT22;10862;51.886;17.078;2022-10-16T14:15:25;21.30;99.90
21403;DHT22;10862;51.886;17.078;2022-10-16T14:17:51;21.00;99.90
21403;DHT22;10862;51.886;17.078;2022-10-16T14:20:17;20.80;99.90
21403;DHT22;10862;51.886;17.078;2022-10-16T14:22:43;20.70;99.90
21403;DHT22;10862;51.886;17.078;2022-10-16T14:25:42;20.70;99.90
21403;DHT22;10862;51.886;17.078;2022-10-16T14:30:27;20.80;99.90
21403;DHT22;10862;51.886;17.078;2022-10-16T14:32:57;20.70;99.90
21403;DHT22;10862;51.886;17.078;2022-10-16T14:35:30;20.60;99.90
21403;DHT22;10862;51.886;17.078;2022-10-16T14:37:56;20.60;99.90
21403;DHT22;10862;51.886;17.078;2022-10-16T14:40:27;20.50;99.90
21403;DHT22;10862;51.886;17.078;2022-10-16T14:42:53;20.50;99.90
21403;DHT22;10862;51.886;17.078;2022-10-16T14:45:23;20.50;99.90
21403;DHT22;10862;51.886;17.078;2022-10-16T14:47:52;20.50;99.90
21403;DHT22;10862;51.886;17.078;2022-10-16T14:50:19;20.40;99.90
21403;DHT22;10862;51.886;17.078;2022-10-16T14:52:44;20.50;99.90
21403;DHT22;10862;51.886;17.078;2022-10-16T14:55:10;20.40;99.90
21403;DHT22;10862;51.886;17.078;2022-10-16T14:57:36;20.40;99.90
21403;DHT22;10862;51.886;17.078;2022-10-16T15:00:02;20.40;99.90
21403;DHT22;10862;51.886;17.078;2022-10-16T15:04:54;20.30;99.90
21403;DHT22;10862;51.886;17.078;2022-10-16T15:07:19;20.20;99.90
21403;DHT22;10862;51.886;17.078;2022-10-16T15:09:45;20.20;99.90
21403;DHT22;10862;51.886;17.078;2022-10-16T15:12:10;20.10;99.90
21403;DHT22;10862;51.886;17.078;2022-10-16T15:14:36;20.10;99.90
21403;DHT22;10862;51.886;17.078;2022-10-16T15:17:02;20.10;99.90
21403;DHT22;10862;51.886;17.078;2022-10-16T15:19:27;20.10;99.90
21403;DHT22;10862;51.886;17.078;2022-10-16T15:21:53;20.00;99.90
21403;DHT22;10862;51.886;17.078;2022-10-16T15:24:18;20.00;99.90
21403;DHT22;10862;51.886;17.078;2022-10-16T15:26:44;20.00;99.90
21403;DHT22;10862;51.886;17.078;2022-10-16T15:29:11;20.00;99.90
21403;DHT22;10862;51.886;17.078;2022-10-16T15:31:36;19.90;99.90
21403;DHT22;10862;51.886;17.078;2022-10-16T15:34:02;19.90;99.90
21403;DHT22;10862;51.886;17.078;2022-10-16T15:36:38;19.80;99.90
21403;DHT22;10862;51.886;17.078;2022-10-16T15:39:04;19.80;99.90
21403;DHT22;10862;51.886;17.078;2022-10-16T15:41:30;19.70;99.90
21403;DHT22;10862;51.886;17.078;2022-10-16T15:43:56;19.60;99.90
21403;DHT22;10862;51.886;17.078;2022-10-16T15:46:22;19.60;99.90
21403;DHT22;10862;51.886;17.078;2022-10-16T15:48:48;19.50;99.90
21403;DHT22;10862;51.886;17.078;2022-10-16T15:51:14;19.50;99.90
21403;DHT22;10862;51.886;17.078;2022-10-16T15:53:40;19.40;99.90
21403;DHT22;10862;51.886;17.078;2022-10-16T15:56:06;19.30;99.90
21403;DHT22;10862;51.886;17.078;2022-10-16T15:58:32;19.20;99.90
21403;DHT22;10862;51.886;17.078;2022-10-16T16:00:58;19.20;99.90
21403;DHT22;10862;51.886;17.078;2022-10-16T16:03:26;19.10;99.90
21403;DHT22;10862;51.886;17.078;2022-10-16T16:05:52;19.10;99.90
21403;DHT22;10862;51.886;17.078;2022-10-16T16:08:18;19.10;99.90
21403;DHT22;10862;51.886;17.078;2022-10-16T16:10:43;19.00;99.90
21403;DHT22;10862;51.886;17.078;2022-10-16T16:13:09;19.00;99.90
21403;DHT22;10862;51.886;17.078;2022-10-16T16:15:36;18.90;99.90
21403;DHT22;10862;51.886;17.078;2022-10-16T16:18:03;18.90;99.90
21403;DHT22;10862;51.886;17.078;2022-10-16T16:20:31;18.90;99.90
21403;DHT22;10862;51.886;17.078;2022-10-16T16:22:56;18.80;99.90
21403;DHT22;10862;51.886;17.078;2022-10-16T16:25:22;18.90;99.90
21403;DHT22;10862;51.886;17.078;2022-10-16T16:27:47;18.80;99.90
21403;DHT22;10862;51.886;17.078;2022-10-16T16:30:13;18.80;99.90
21403;DHT22;10862;51.886;17.078;2022-10-16T16:32:38;18.70;99.90
21403;DHT22;10862;51.886;17.078;2022-10-16T16:35:04;18.70;99.90
21403;DHT22;10862;51.886;17.078;2022-10-16T16:37:30;18.80;99.90
21403;DHT22;10862;51.886;17.078;2022-10-16T16:39:55;18.80;99.90
21403;DHT22;10862;51.886;17.078;2022-10-16T16:42:24;18.80;99.90
21403;DHT22;10862;51.886;17.078;2022-10-16T16:44:50;18.80;99.90
21403;DHT22;10862;51.886;17.078;2022-10-16T16:47:15;18.70;99.90
21403;DHT22;10862;51.886;17.078;2022-10-16T16:49:41;18.70;99.90
21403;DHT22;10862;51.886;17.078;2022-10-16T16:52:06;18.60;99.90
21403;DHT22;10862;51.886;17.078;2022-10-16T16:54:32;18.60;99.90
21403;DHT22;10862;51.886;17.078;2022-10-16T16:56:57;18.60;99.90
21403;DHT22;10862;51.886;17.078;2022-10-16T16:59:23;18.60;99.90